sensor_id;sensor_type;location;lat;lon;timestamp;temperature;humidity
2579;DHT22;1299;48.282;14.398;2023-06-04T00:02:15;14.00;99.90
2579;DHT22;1299;48.282;14.398;2023-06-04T00:04:41;14.00;99.90
2579;DHT22;1299;48.282;14.398;2023-06-04T00:07:08;13.90;99.90
2579;DHT22;1299;48.282;14.398;2023-06-04T00:09:35;13.90;99.90
2579;DHT22;1299;48.282;14.398;2023-06-04T00:12:04;13.90;99.90
2579;DHT22;1299;48.282;14.398;2023-06-04T00:14:31;13.90;99.90
2579;DHT22;1299;48.282;14.398;2023-06-04T00:16:58;13.90;99.90
2579;DHT22;1299;48.282;14.398;2023-06-04T00:19:25;13.90;99.90
2579;DHT22;1299;48.282;14.398;2023-06-04T00:21:52;13.80;99.90
2579;DHT22;1299;48.282;14.398;2023-06-04T00:24:19;13.80;99.90
2579;DHT22;1299;48.282;14.398;2023-06-04T00:26:46;13.80;99.90
2579;DHT22;1299;48.282;14.398;2023-06-04T00:29:14;13.80;99.90
2579;DHT22;1299;48.282;14.398;2023-06-04T00:31:41;13.80;99.90
2579;DHT22;1299;48.282;14.398;2023-06-04T00:34:08;13.80;99.90
2579;DHT22;1299;48.282;14.398;2023-06-04T00:36:36;13.80;99.90
2579;DHT22;1299;48.282;14.398;2023-06-04T00:39:03;13.80;99.90
2579;DHT22;1299;48.282;14.398;2023-06-04T00:41:30;13.80;99.90
2579;DHT22;1299;48.282;14.398;2023-06-04T00:43:57;13.80;99.90
2579;DHT22;1299;48.282;14.398;2023-06-04T00:46:28;13.70;99.90
2579;DHT22;1299;48.282;14.398;2023-06-04T00:48:56;13.70;99.90
2579;DHT22;1299;48.282;14.398;2023-06-04T00:51:23;13.70;99.90
2579;DHT22;1299;48.282;14.398;2023-06-04T00:53:52;13.70;99.90
2579;DHT22;1299;48.282;14.398;2023-06-04T00:56:19;13.70;99.90
2579;DHT22;1299;48.282;14.398;2023-06-04T00:58:46;13.70;99.90
2579;DHT22;1299;48.282;14.398;2023-06-04T01:01:20;13.70;99.90
2579;DHT22;1299;48.282;14.398;2023-06-04T01:03:53;13.70;99.90
2579;DHT22;1299;48.282;14.398;2023-06-04T01:06:25;13.70;99.90
2579;DHT22;1299;48.282;14.398;2023-06-04T01:08:58;13.70;99.90
2579;DHT22;1299;48.282;14.398;2023-06-04T01:11:33;13.70;99.90
2579;DHT22;1299;48.282;14.398;2023-06-04T01:14:00;13.80;99.90
2579;DHT22;1299;48.282;14.398;2023-06-04T01:16:29;13.80;99.90
2579;DHT22;1299;48.282;14.398;2023-06-04T01:19:02;13.70;99.90
2579;DHT22;1299;48.282;14.398;2023-06-04T01:21:35;13.80;99.90
2579;DHT22;1299;48.282;14.398;2023-06-04T01:24:05;13.80;99.90
2579;DHT22;1299;48.282;14.398;2023-06-04T01:26:34;13.80;99.90
2579;DHT22;1299;48.282;14.398;2023-06-04T01:29:03;13.80;99.90
2579;DHT22;1299;48.282;14.398;2023-06-04T01:31:31;13.80;99.90
2579;DHT22;1299;48.282;14.398;2023-06-04T01:34:00;13.80;99.90
2579;DHT22;1299;48.282;14.398;2023-06-04T01:36:27;13.90;99.90
2579;DHT22;1299;48.282;14.398;2023-06-04T01:38:55;13.90;99.90
2579;DHT22;1299;48.282;14.398;2023-06-04T01:41:22;13.70;99.90
2579;DHT22;1299;48.282;14.398;2023-06-04T01:43:49;13.60;99.90
2579;DHT22;1299;48.282;14.398;2023-06-04T01:46:16;13.70;99.90
2579;DHT22;1299;48.282;14.398;2023-06-04T01:48:43;13.90;99.90
2579;DHT22;1299;48.282;14.398;2023-06-04T01:51:11;14.00;99.90
2579;DHT22;1299;48.282;14.398;2023-06-04T01:53:38;14.00;99.90
2579;DHT22;1299;48.282;14.398;2023-06-04T01:56:05;14.00;99.90
2579;DHT22;1299;48.282;14.398;2023-06-04T01:58:33;13.90;99.90
2579;DHT22;1299;48.282;14.398;2023-06-04T02:01:00;13.80;99.90
2579;DHT22;1299;48.282;14.398;2023-06-04T02:03:28;13.90;99.90
2579;DHT22;1299;48.282;14.398;2023-06-04T02:06:03;14.00;99.90
2579;DHT22;1299;48.282;14.398;2023-06-04T02:08:31;14.10;99.90
2579;DHT22;1299;48.282;14.398;2023-06-04T02:10:59;13.70;99.90
2579;DHT22;1299;48.282;14.398;2023-06-04T02:13:26;13.70;99.90
2579;DHT22;1299;48.282;14.398;2023-06-04T02:15:52;14.00;99.90
2579;DHT22;1299;48.282;14.398;2023-06-04T02:18:20;14.10;99.90
2579;DHT22;1299;48.282;14.398;2023-06-04T02:20:48;14.30;99.90
2579;DHT22;1299;48.282;14.398;2023-06-04T02:23:17;14.40;99.90
2579;DHT22;1299;48.282;14.398;2023-06-04T02:25:45;14.50;99.90
2579;DHT22;1299;48.282;14.398;2023-06-04T02:28:13;14.60;99.90
2579;DHT22;1299;48.282;14.398;2023-06-04T02:30:40;14.60;99.90
2579;DHT22;1299;48.282;14.398;2023-06-04T02:33:07;14.70;99.90
2579;DHT22;1299;48.282;14.398;2023-06-04T02:35:35;14.70;99.90
2579;DHT22;1299;48.282;14.398;2023-06-04T02:38:02;14.70;99.90
2579;DHT22;1299;48.282;14.398;2023-06-04T02:40:29;14.60;99.90
2579;DHT22;1299;48.282;14.398;2023-06-04T02:42:58;14.60;99.90
2579;DHT22;1299;48.282;14.398;2023-06-04T02:45:25;14.70;99.90
2579;DHT22;1299;48.282;14.398;2023-06-04T02:47:52;14.60;99.90
2579;DHT22;1299;48.282;14.398;2023-06-04T02:50:19;14.60;99.90
2579;DHT22;1299;48.282;14.398;2023-06-04T02:52:46;14.50;99.90
2579;DHT22;1299;48.282;14.398;2023-06-04T02:55:13;14.60;99.90
2579;DHT22;1299;48.282;14.398;2023-06-04T02:57:41;14.40;99.90
2579;DHT22;1299;48.282;14.398;2023-06-04T03:00:11;14.50;99.90
2579;DHT22;1299;48.282;14.398;2023-06-04T03:02:40;14.20;99.90
2579;DHT22;1299;48.282;14.398;2023-06-04T03:05:09;14.20;99.90
2579;DHT22;1299;48.282;14.398;2023-06-04T03:07:39;13.90;99.90
2579;DHT22;1299;48.282;14.398;2023-06-04T03:10:07;13.80;99.90
2579;DHT22;1299;48.282;14.398;2023-06-04T03:12:35;14.10;99.90
2579;DHT22;1299;48.282;14.398;2023-06-04T03:15:02;14.10;99.90
2579;DHT22;1299;48.282;14.398;2023-06-04T03:17:30;14.10;99.90
2579;DHT22;1299;48.282;14.398;2023-06-04T03:19:57;14.10;99.90
2579;DHT22;1299;48.282;14.398;2023-06-04T03:22:24;14.00;99.90
2579;DHT22;1299;48.282;14.398;2023-06-04T03:24:51;14.00;99.90
2579;DHT22;1299;48.282;14.398;2023-06-04T03:27:18;14.10;99.90
2579;DHT22;1299;48.282;14.398;2023-06-04T03:29:45;14.10;99.90
2579;DHT22;1299;48.282;14.398;2023-06-04T03:32:13;14.20;99.90
2579;DHT22;1299;48.282;14.398;2023-06-04T03:34:43;14.20;99.90
2579;DHT22;1299;48.282;14.398;2023-06-04T03:37:10;14.10;99.90
2579;DHT22;1299;48.282;14.398;2023-06-04T03:39:36;14.20;99.90
2579;DHT22;1299;48.282;14.398;2023-06-04T03:42:04;14.20;99.90
2579;DHT22;1299;48.282;14.398;2023-06-04T03:44:31;13.80;99.90
2579;DHT22;1299;48.282;14.398;2023-06-04T03:46:58;14.00;99.90
2579;DHT22;1299;48.282;14.398;2023-06-04T03:49:25;13.90;99.90
2579;DHT22;1299;48.282;14.398;2023-06-04T03:51:53;14.10;99.90
2579;DHT22;1299;48.282;14.398;2023-06-04T03:54:21;14.10;99.90
2579;DHT22;1299;48.282;14.398;2023-06-04T03:56:48;14.20;99.90
2579;DHT22;1299;48.282;14.398;2023-06-04T03:59:15;14.20;99.90
2579;DHT22;1299;48.282;14.398;2023-06-04T04:01:42;14.30;99.90
2579;DHT22;1299;48.282;14.398;2023-06-04T04:04:10;14.30;99.90
2579;DHT22;1299;48.282;14.398;2023-06-04T04:06:37;14.30;99.90
2579;DHT22;1299;48.282;14.398;2023-06-04T04:09:05;14.30;99.90
2579;DHT22;1299;48.282;14.398;2023-06-04T04:11:32;14.30;99.90
2579;DHT22;1299;48.282;14.398;2023-06-04T04:13:59;14.40;99.90
2579;DHT22;1299;48.282;14.398;2023-06-04T04:16:26;14.40;99.90
2579;DHT22;1299;48.282;14.398;2023-06-04T04:18:54;14.50;99.90
2579;DHT22;1299;48.282;14.398;2023-06-04T04:21:21;14.50;99.90
2579;DHT22;1299;48.282;14.398;2023-06-04T04:23:49;14.50;99.90
2579;DHT22;1299;48.282;14.398;2023-06-04T04:26:18;14.50;99.90
2579;DHT22;1299;48.282;14.398;2023-06-04T04:28:45;14.50;99.90
2579;DHT22;1299;48.282;14.398;2023-06-04T04:31:12;14.50;99.90
2579;DHT22;1299;48.282;14.398;2023-06-04T04:33:40;14.60;99.90
2579;DHT22;1299;48.282;14.398;2023-06-04T04:36:07;14.70;99.90
2579;DHT22;1299;48.282;14.398;2023-06-04T04:38:38;14.80;99.90
2579;DHT22;1299;48.282;14.398;2023-06-04T04:41:06;14.80;99.90
2579;DHT22;1299;48.282;14.398;2023-06-04T04:43:36;14.90;99.90
2579;DHT22;1299;48.282;14.398;2023-06-04T04:46:05;14.80;99.90
2579;DHT22;1299;48.282;14.398;2023-06-04T04:48:32;14.90;99.90
2579;DHT22;1299;48.282;14.398;2023-06-04T04:50:59;15.00;99.90
2579;DHT22;1299;48.282;14.398;2023-06-04T04:53:27;15.20;99.90
2579;DHT22;1299;48.282;14.398;2023-06-04T04:55:54;15.30;99.90
2579;DHT22;1299;48.282;14.398;2023-06-04T04:58:21;15.40;99.90
2579;DHT22;1299;48.282;14.398;2023-06-04T05:00:49;15.40;99.90
2579;DHT22;1299;48.282;14.398;2023-06-04T05:03:16;15.50;99.90
2579;DHT22;1299;48.282;14.398;2023-06-04T05:05:43;15.60;99.90
2579;DHT22;1299;48.282;14.398;2023-06-04T05:08:11;15.60;99.90
2579;DHT22;1299;48.282;14.398;2023-06-04T05:10:38;15.60;99.90
2579;DHT22;1299;48.282;14.398;2023-06-04T05:13:05;15.70;99.90
2579;DHT22;1299;48.282;14.398;2023-06-04T05:15:32;15.00;99.90
2579;DHT22;1299;48.282;14.398;2023-06-04T05:18:00;14.90;99.90
2579;DHT22;1299;48.282;14.398;2023-06-04T05:20:29;15.00;99.90
2579;DHT22;1299;48.282;14.398;2023-06-04T05:22:56;15.40;99.90
2579;DHT22;1299;48.282;14.398;2023-06-04T05:25:23;15.50;99.90
2579;DHT22;1299;48.282;14.398;2023-06-04T05:27:50;15.30;99.90
2579;DHT22;1299;48.282;14.398;2023-06-04T05:30:17;15.20;99.90
2579;DHT22;1299;48.282;14.398;2023-06-04T05:32:44;14.80;99.90
2579;DHT22;1299;48.282;14.398;2023-06-04T05:35:12;14.80;99.90
2579;DHT22;1299;48.282;14.398;2023-06-04T05:37:39;15.00;99.90
2579;DHT22;1299;48.282;14.398;2023-06-04T05:40:08;15.10;99.90
2579;DHT22;1299;48.282;14.398;2023-06-04T05:42:36;15.30;99.90
2579;DHT22;1299;48.282;14.398;2023-06-04T05:45:04;15.10;99.90
2579;DHT22;1299;48.282;14.398;2023-06-04T05:47:33;15.50;99.90
2579;DHT22;1299;48.282;14.398;2023-06-04T05:50:00;15.70;99.90
2579;DHT22;1299;48.282;14.398;2023-06-04T05:52:29;15.70;99.90
2579;DHT22;1299;48.282;14.398;2023-06-04T05:54:56;16.00;99.90
2579;DHT22;1299;48.282;14.398;2023-06-04T05:57:23;16.30;99.90
2579;DHT22;1299;48.282;14.398;2023-06-04T05:59:50;16.30;99.30
2579;DHT22;1299;48.282;14.398;2023-06-04T06:02:17;16.50;99.90
2579;DHT22;1299;48.282;14.398;2023-06-04T06:04:44;16.60;99.40
2579;DHT22;1299;48.282;14.398;2023-06-04T06:07:11;17.00;99.80
2579;DHT22;1299;48.282;14.398;2023-06-04T06:09:39;17.00;99.90
2579;DHT22;1299;48.282;14.398;2023-06-04T06:12:06;17.60;99.20
2579;DHT22;1299;48.282;14.398;2023-06-04T06:14:33;17.90;97.90
2579;DHT22;1299;48.282;14.398;2023-06-04T06:17:01;18.10;96.70
2579;DHT22;1299;48.282;14.398;2023-06-04T06:19:28;17.90;97.30
2579;DHT22;1299;48.282;14.398;2023-06-04T06:21:55;17.80;96.60
2579;DHT22;1299;48.282;14.398;2023-06-04T06:24:25;17.50;95.70
2579;DHT22;1299;48.282;14.398;2023-06-04T06:26:53;17.40;97.70
2579;DHT22;1299;48.282;14.398;2023-06-04T06:29:20;17.80;95.90
2579;DHT22;1299;48.282;14.398;2023-06-04T06:31:47;17.40;95.50
2579;DHT22;1299;48.282;14.398;2023-06-04T06:34:14;17.80;96.20
2579;DHT22;1299;48.282;14.398;2023-06-04T06:36:41;17.90;94.80
2579;DHT22;1299;48.282;14.398;2023-06-04T06:39:09;17.80;95.60
2579;DHT22;1299;48.282;14.398;2023-06-04T06:41:37;18.20;95.70
2579;DHT22;1299;48.282;14.398;2023-06-04T06:44:05;17.80;94.90
2579;DHT22;1299;48.282;14.398;2023-06-04T06:46:33;18.10;95.10
2579;DHT22;1299;48.282;14.398;2023-06-04T06:49:00;18.40;94.40
2579;DHT22;1299;48.282;14.398;2023-06-04T06:51:27;18.20;94.30
2579;DHT22;1299;48.282;14.398;2023-06-04T06:53:54;18.70;94.40
2579;DHT22;1299;48.282;14.398;2023-06-04T06:56:21;18.40;93.00
2579;DHT22;1299;48.282;14.398;2023-06-04T06:58:48;19.10;92.90
2579;DHT22;1299;48.282;14.398;2023-06-04T07:01:16;18.70;92.80
2579;DHT22;1299;48.282;14.398;2023-06-04T07:03:43;19.00;93.00
2579;DHT22;1299;48.282;14.398;2023-06-04T07:06:13;19.00;92.50
2579;DHT22;1299;48.282;14.398;2023-06-04T07:08:40;18.90;92.10
2579;DHT22;1299;48.282;14.398;2023-06-04T07:11:07;18.70;91.60
2579;DHT22;1299;48.282;14.398;2023-06-04T07:13:37;19.20;91.80
2579;DHT22;1299;48.282;14.398;2023-06-04T07:16:04;19.50;92.20
2579;DHT22;1299;48.282;14.398;2023-06-04T07:18:33;19.80;91.40
2579;DHT22;1299;48.282;14.398;2023-06-04T07:21:00;19.00;91.60
2579;DHT22;1299;48.282;14.398;2023-06-04T07:23:27;18.90;92.90
2579;DHT22;1299;48.282;14.398;2023-06-04T07:25:54;19.10;93.70
2579;DHT22;1299;48.282;14.398;2023-06-04T07:28:21;20.10;93.60
2579;DHT22;1299;48.282;14.398;2023-06-04T07:30:48;20.00;92.80
2579;DHT22;1299;48.282;14.398;2023-06-04T07:33:15;20.10;92.20
2579;DHT22;1299;48.282;14.398;2023-06-04T07:35:43;19.70;92.80
2579;DHT22;1299;48.282;14.398;2023-06-04T07:38:10;19.00;94.00
2579;DHT22;1299;48.282;14.398;2023-06-04T07:40:37;18.80;93.70
2579;DHT22;1299;48.282;14.398;2023-06-04T07:43:04;18.90;93.90
2579;DHT22;1299;48.282;14.398;2023-06-04T07:45:31;18.30;93.70
2579;DHT22;1299;48.282;14.398;2023-06-04T07:47:58;18.60;95.00
2579;DHT22;1299;48.282;14.398;2023-06-04T07:50:25;19.20;94.10
2579;DHT22;1299;48.282;14.398;2023-06-04T07:52:53;19.60;94.30
2579;DHT22;1299;48.282;14.398;2023-06-04T07:55:20;18.80;93.90
2579;DHT22;1299;48.282;14.398;2023-06-04T07:57:47;18.20;93.80
2579;DHT22;1299;48.282;14.398;2023-06-04T08:00:15;19.00;95.50
2579;DHT22;1299;48.282;14.398;2023-06-04T08:02:43;19.00;93.70
2579;DHT22;1299;48.282;14.398;2023-06-04T08:05:10;19.60;94.20
2579;DHT22;1299;48.282;14.398;2023-06-04T08:07:39;20.10;93.00
2579;DHT22;1299;48.282;14.398;2023-06-04T08:10:08;20.30;92.80
2579;DHT22;1299;48.282;14.398;2023-06-04T08:12:36;20.30;92.00
2579;DHT22;1299;48.282;14.398;2023-06-04T08:15:03;19.60;92.60
2579;DHT22;1299;48.282;14.398;2023-06-04T08:17:31;20.10;92.60
2579;DHT22;1299;48.282;14.398;2023-06-04T08:19:58;19.20;92.80
2579;DHT22;1299;48.282;14.398;2023-06-04T08:22:25;19.20;92.40
2579;DHT22;1299;48.282;14.398;2023-06-04T08:24:53;19.70;93.00
2579;DHT22;1299;48.282;14.398;2023-06-04T08:27:22;20.20;91.70
2579;DHT22;1299;48.282;14.398;2023-06-04T08:29:49;20.30;91.00
2579;DHT22;1299;48.282;14.398;2023-06-04T08:32:17;20.10;90.40
2579;DHT22;1299;48.282;14.398;2023-06-04T08:34:44;20.80;91.70
2579;DHT22;1299;48.282;14.398;2023-06-04T08:37:11;21.20;90.70
2579;DHT22;1299;48.282;14.398;2023-06-04T08:39:38;21.60;90.10
2579;DHT22;1299;48.282;14.398;2023-06-04T08:42:06;20.20;90.80
2579;DHT22;1299;48.282;14.398;2023-06-04T08:44:36;21.30;90.60
2579;DHT22;1299;48.282;14.398;2023-06-04T08:47:05;21.80;88.90
2579;DHT22;1299;48.282;14.398;2023-06-04T08:49:34;21.60;87.00
2579;DHT22;1299;48.282;14.398;2023-06-04T08:52:02;21.70;87.80
2579;DHT22;1299;48.282;14.398;2023-06-04T08:54:30;21.70;87.00
2579;DHT22;1299;48.282;14.398;2023-06-04T08:56:58;21.00;89.10
2579;DHT22;1299;48.282;14.398;2023-06-04T08:59:25;21.30;89.80
2579;DHT22;1299;48.282;14.398;2023-06-04T09:01:55;22.10;88.80
2579;DHT22;1299;48.282;14.398;2023-06-04T09:04:22;21.90;87.80
2579;DHT22;1299;48.282;14.398;2023-06-04T09:06:50;21.60;87.70
2579;DHT22;1299;48.282;14.398;2023-06-04T09:09:19;21.20;86.40
2579;DHT22;1299;48.282;14.398;2023-06-04T09:11:53;22.10;87.70
2579;DHT22;1299;48.282;14.398;2023-06-04T09:14:20;22.00;86.40
2579;DHT22;1299;48.282;14.398;2023-06-04T09:16:48;22.50;86.70
2579;DHT22;1299;48.282;14.398;2023-06-04T09:19:18;22.80;85.80
2579;DHT22;1299;48.282;14.398;2023-06-04T09:21:52;22.10;87.60
2579;DHT22;1299;48.282;14.398;2023-06-04T09:24:21;22.70;86.80
2579;DHT22;1299;48.282;14.398;2023-06-04T09:26:48;22.80;88.30
2579;DHT22;1299;48.282;14.398;2023-06-04T09:29:16;23.00;86.70
2579;DHT22;1299;48.282;14.398;2023-06-04T09:31:44;22.60;86.90
2579;DHT22;1299;48.282;14.398;2023-06-04T09:34:12;22.80;86.50
2579;DHT22;1299;48.282;14.398;2023-06-04T09:36:41;22.50;85.90
2579;DHT22;1299;48.282;14.398;2023-06-04T09:39:15;22.60;87.50
2579;DHT22;1299;48.282;14.398;2023-06-04T09:41:42;21.30;89.30
2579;DHT22;1299;48.282;14.398;2023-06-04T09:44:09;20.90;90.10
2579;DHT22;1299;48.282;14.398;2023-06-04T09:46:38;21.80;89.40
2579;DHT22;1299;48.282;14.398;2023-06-04T09:49:05;22.00;89.70
2579;DHT22;1299;48.282;14.398;2023-06-04T09:51:32;22.30;89.20
2579;DHT22;1299;48.282;14.398;2023-06-04T09:54:03;22.30;90.00
2579;DHT22;1299;48.282;14.398;2023-06-04T09:56:39;22.40;89.50
2579;DHT22;1299;48.282;14.398;2023-06-04T09:59:08;23.00;90.70
2579;DHT22;1299;48.282;14.398;2023-06-04T10:01:39;23.00;88.60
2579;DHT22;1299;48.282;14.398;2023-06-04T10:04:08;23.40;89.80
2579;DHT22;1299;48.282;14.398;2023-06-04T10:06:39;22.80;88.40
2579;DHT22;1299;48.282;14.398;2023-06-04T10:09:08;23.00;89.10
2579;DHT22;1299;48.282;14.398;2023-06-04T10:11:39;22.30;90.20
2579;DHT22;1299;48.282;14.398;2023-06-04T10:14:10;21.70;90.30
2579;DHT22;1299;48.282;14.398;2023-06-04T10:16:38;21.80;91.80
2579;DHT22;1299;48.282;14.398;2023-06-04T10:19:07;22.40;91.50
2579;DHT22;1299;48.282;14.398;2023-06-04T10:21:34;23.00;91.00
2579;DHT22;1299;48.282;14.398;2023-06-04T10:24:02;22.40;90.90
2579;DHT22;1299;48.282;14.398;2023-06-04T10:26:32;22.30;90.40
2579;DHT22;1299;48.282;14.398;2023-06-04T10:29:00;22.90;90.20
2579;DHT22;1299;48.282;14.398;2023-06-04T10:31:28;22.30;90.30
2579;DHT22;1299;48.282;14.398;2023-06-04T10:33:56;22.70;91.30
2579;DHT22;1299;48.282;14.398;2023-06-04T10:36:24;22.10;89.70
2579;DHT22;1299;48.282;14.398;2023-06-04T10:38:52;22.20;90.90
2579;DHT22;1299;48.282;14.398;2023-06-04T10:41:20;22.00;90.40
2579;DHT22;1299;48.282;14.398;2023-06-04T10:43:50;22.10;91.90
2579;DHT22;1299;48.282;14.398;2023-06-04T10:46:19;22.10;91.60
2579;DHT22;1299;48.282;14.398;2023-06-04T10:48:50;22.60;90.60
2579;DHT22;1299;48.282;14.398;2023-06-04T10:51:29;22.70;90.90
2579;DHT22;1299;48.282;14.398;2023-06-04T10:53:56;23.00;89.80
2579;DHT22;1299;48.282;14.398;2023-06-04T10:56:26;23.30;90.70
2579;DHT22;1299;48.282;14.398;2023-06-04T10:58:55;23.10;91.10
2579;DHT22;1299;48.282;14.398;2023-06-04T11:01:25;23.50;89.20
2579;DHT22;1299;48.282;14.398;2023-06-04T11:03:54;23.90;90.00
2579;DHT22;1299;48.282;14.398;2023-06-04T11:06:21;23.80;90.60
2579;DHT22;1299;48.282;14.398;2023-06-04T11:09:01;23.70;90.30
2579;DHT22;1299;48.282;14.398;2023-06-04T11:11:29;22.80;90.70
2579;DHT22;1299;48.282;14.398;2023-06-04T11:14:07;22.10;90.60
2579;DHT22;1299;48.282;14.398;2023-06-04T11:16:34;22.50;91.10
2579;DHT22;1299;48.282;14.398;2023-06-04T11:19:01;22.70;90.10
2579;DHT22;1299;48.282;14.398;2023-06-04T11:21:28;23.20;90.20
2579;DHT22;1299;48.282;14.398;2023-06-04T11:23:57;23.30;90.00
2579;DHT22;1299;48.282;14.398;2023-06-04T11:26:30;23.80;91.10
2579;DHT22;1299;48.282;14.398;2023-06-04T11:28:58;24.10;90.30
2579;DHT22;1299;48.282;14.398;2023-06-04T11:31:25;23.70;92.40
2579;DHT22;1299;48.282;14.398;2023-06-04T11:33:52;23.50;90.30
2579;DHT22;1299;48.282;14.398;2023-06-04T11:36:23;23.10;90.70
2579;DHT22;1299;48.282;14.398;2023-06-04T11:38:56;23.00;91.30
2579;DHT22;1299;48.282;14.398;2023-06-04T11:41:23;23.50;90.70
2579;DHT22;1299;48.282;14.398;2023-06-04T11:43:50;22.90;90.70
2579;DHT22;1299;48.282;14.398;2023-06-04T11:46:20;22.90;91.90
2579;DHT22;1299;48.282;14.398;2023-06-04T11:48:47;23.00;91.30
2579;DHT22;1299;48.282;14.398;2023-06-04T11:51:14;23.10;92.20
2579;DHT22;1299;48.282;14.398;2023-06-04T11:53:42;22.60;91.90
2579;DHT22;1299;48.282;14.398;2023-06-04T11:56:09;22.90;92.50
2579;DHT22;1299;48.282;14.398;2023-06-04T11:58:37;22.90;91.90
2579;DHT22;1299;48.282;14.398;2023-06-04T12:01:04;23.30;91.80
2579;DHT22;1299;48.282;14.398;2023-06-04T12:03:36;23.80;91.40
2579;DHT22;1299;48.282;14.398;2023-06-04T12:06:13;23.70;91.70
2579;DHT22;1299;48.282;14.398;2023-06-04T12:08:48;23.60;92.50
2579;DHT22;1299;48.282;14.398;2023-06-04T12:11:29;23.80;92.40
2579;DHT22;1299;48.282;14.398;2023-06-04T12:13:59;23.30;92.60
2579;DHT22;1299;48.282;14.398;2023-06-04T12:16:27;23.00;91.40
2579;DHT22;1299;48.282;14.398;2023-06-04T12:19:06;23.50;91.00
2579;DHT22;1299;48.282;14.398;2023-06-04T12:21:34;23.70;90.80
2579;DHT22;1299;48.282;14.398;2023-06-04T12:24:08;23.10;91.00
2579;DHT22;1299;48.282;14.398;2023-06-04T12:26:36;23.10;91.00
2579;DHT22;1299;48.282;14.398;2023-06-04T12:29:10;23.20;92.10
2579;DHT22;1299;48.282;14.398;2023-06-04T12:31:38;23.30;91.00
2579;DHT22;1299;48.282;14.398;2023-06-04T12:34:07;23.10;91.10
2579;DHT22;1299;48.282;14.398;2023-06-04T12:36:34;23.00;91.10
2579;DHT22;1299;48.282;14.398;2023-06-04T12:39:02;23.20;92.50
2579;DHT22;1299;48.282;14.398;2023-06-04T12:41:30;23.60;91.60
2579;DHT22;1299;48.282;14.398;2023-06-04T12:43:59;23.90;90.30
2579;DHT22;1299;48.282;14.398;2023-06-04T12:46:26;23.50;91.00
2579;DHT22;1299;48.282;14.398;2023-06-04T12:48:54;23.20;90.80
2579;DHT22;1299;48.282;14.398;2023-06-04T12:51:22;23.70;91.70
2579;DHT22;1299;48.282;14.398;2023-06-04T12:53:49;24.00;91.30
2579;DHT22;1299;48.282;14.398;2023-06-04T12:56:16;24.00;90.80
2579;DHT22;1299;48.282;14.398;2023-06-04T12:58:43;24.40;90.90
2579;DHT22;1299;48.282;14.398;2023-06-04T13:01:10;24.60;91.20
2579;DHT22;1299;48.282;14.398;2023-06-04T13:03:40;25.20;90.90
2579;DHT22;1299;48.282;14.398;2023-06-04T13:06:07;25.30;90.10
2579;DHT22;1299;48.282;14.398;2023-06-04T13:08:36;25.00;89.10
2579;DHT22;1299;48.282;14.398;2023-06-04T13:11:03;25.00;90.50
2579;DHT22;1299;48.282;14.398;2023-06-04T13:13:31;25.30;90.60
2579;DHT22;1299;48.282;14.398;2023-06-04T13:15:58;25.10;90.20
2579;DHT22;1299;48.282;14.398;2023-06-04T13:18:26;25.50;90.40
2579;DHT22;1299;48.282;14.398;2023-06-04T13:20:53;25.50;90.50
2579;DHT22;1299;48.282;14.398;2023-06-04T13:23:21;24.40;91.30
2579;DHT22;1299;48.282;14.398;2023-06-04T13:25:50;24.10;91.00
2579;DHT22;1299;48.282;14.398;2023-06-04T13:28:17;24.30;91.90
2579;DHT22;1299;48.282;14.398;2023-06-04T13:30:44;23.60;91.90
2579;DHT22;1299;48.282;14.398;2023-06-04T13:33:11;23.80;92.10
2579;DHT22;1299;48.282;14.398;2023-06-04T13:35:38;23.70;92.90
2579;DHT22;1299;48.282;14.398;2023-06-04T13:38:05;23.90;92.40
2579;DHT22;1299;48.282;14.398;2023-06-04T13:40:34;24.10;92.40
2579;DHT22;1299;48.282;14.398;2023-06-04T13:43:02;23.80;91.90
2579;DHT22;1299;48.282;14.398;2023-06-04T13:45:29;24.00;92.20
2579;DHT22;1299;48.282;14.398;2023-06-04T13:47:56;24.10;91.80
2579;DHT22;1299;48.282;14.398;2023-06-04T13:50:27;23.90;91.80
2579;DHT22;1299;48.282;14.398;2023-06-04T13:52:54;23.50;92.00
2579;DHT22;1299;48.282;14.398;2023-06-04T13:55:21;24.00;92.80
2579;DHT22;1299;48.282;14.398;2023-06-04T13:57:48;23.70;91.80
2579;DHT22;1299;48.282;14.398;2023-06-04T14:00:17;24.40;91.60
2579;DHT22;1299;48.282;14.398;2023-06-04T14:02:44;24.40;91.90
2579;DHT22;1299;48.282;14.398;2023-06-04T14:05:11;24.40;91.70
2579;DHT22;1299;48.282;14.398;2023-06-04T14:07:38;23.80;92.50
2579;DHT22;1299;48.282;14.398;2023-06-04T14:10:06;23.90;92.80
2579;DHT22;1299;48.282;14.398;2023-06-04T14:12:33;24.00;92.70
2579;DHT22;1299;48.282;14.398;2023-06-04T14:15:00;23.30;92.50
2579;DHT22;1299;48.282;14.398;2023-06-04T14:17:29;23.70;93.80
2579;DHT22;1299;48.282;14.398;2023-06-04T14:19:56;23.80;92.80
2579;DHT22;1299;48.282;14.398;2023-06-04T14:22:23;23.80;93.10
2579;DHT22;1299;48.282;14.398;2023-06-04T14:24:49;23.90;92.60
2579;DHT22;1299;48.282;14.398;2023-06-04T14:27:16;24.30;92.70
2579;DHT22;1299;48.282;14.398;2023-06-04T14:29:43;23.90;93.00
2579;DHT22;1299;48.282;14.398;2023-06-04T14:32:10;24.00;93.50
2579;DHT22;1299;48.282;14.398;2023-06-04T14:34:39;24.10;92.60
2579;DHT22;1299;48.282;14.398;2023-06-04T14:37:06;24.00;93.60
2579;DHT22;1299;48.282;14.398;2023-06-04T14:39:33;24.20;92.60
2579;DHT22;1299;48.282;14.398;2023-06-04T14:42:02;24.50;93.20
2579;DHT22;1299;48.282;14.398;2023-06-04T14:44:28;24.50;92.90
2579;DHT22;1299;48.282;14.398;2023-06-04T14:46:55;24.30;92.70
2579;DHT22;1299;48.282;14.398;2023-06-04T14:49:22;24.20;93.40
2579;DHT22;1299;48.282;14.398;2023-06-04T14:51:51;24.20;93.50
2579;DHT22;1299;48.282;14.398;2023-06-04T14:54:18;23.90;93.40
2579;DHT22;1299;48.282;14.398;2023-06-04T14:56:45;24.00;93.60
2579;DHT22;1299;48.282;14.398;2023-06-04T14:59:12;24.40;93.30
2579;DHT22;1299;48.282;14.398;2023-06-04T15:01:39;24.80;93.50
2579;DHT22;1299;48.282;14.398;2023-06-04T15:04:07;24.90;93.40
2579;DHT22;1299;48.282;14.398;2023-06-04T15:06:34;24.40;92.30
2579;DHT22;1299;48.282;14.398;2023-06-04T15:09:03;24.30;92.60
2579;DHT22;1299;48.282;14.398;2023-06-04T15:11:30;23.90;93.20
2579;DHT22;1299;48.282;14.398;2023-06-04T15:13:57;23.80;93.50
2579;DHT22;1299;48.282;14.398;2023-06-04T15:16:24;23.80;93.10
2579;DHT22;1299;48.282;14.398;2023-06-04T15:18:51;23.30;93.10
2579;DHT22;1299;48.282;14.398;2023-06-04T15:21:17;23.00;93.50
2579;DHT22;1299;48.282;14.398;2023-06-04T15:23:44;23.10;94.60
2579;DHT22;1299;48.282;14.398;2023-06-04T15:26:16;23.20;94.00
2579;DHT22;1299;48.282;14.398;2023-06-04T15:28:43;23.30;94.30
2579;DHT22;1299;48.282;14.398;2023-06-04T15:31:11;23.30;94.60
2579;DHT22;1299;48.282;14.398;2023-06-04T15:33:38;23.50;94.50
2579;DHT22;1299;48.282;14.398;2023-06-04T15:36:05;24.00;94.50
2579;DHT22;1299;48.282;14.398;2023-06-04T15:38:32;23.60;94.00
2579;DHT22;1299;48.282;14.398;2023-06-04T15:40:59;23.30;94.30
2579;DHT22;1299;48.282;14.398;2023-06-04T15:43:28;23.50;94.70
2579;DHT22;1299;48.282;14.398;2023-06-04T15:45:54;23.70;94.80
2579;DHT22;1299;48.282;14.398;2023-06-04T15:48:21;23.40;95.30
2579;DHT22;1299;48.282;14.398;2023-06-04T15:50:49;23.20;95.20